Fairport, Missouri
Current Conditions -  °F | °C
As of 6:53 PM on Wednesday 22 Oct 2014 (Local Time) from KSTJ Reporting Station
Clear Clear  
Wind Chill: 66°   Ceiling: Unl
Heat Index: 66°   Visibility: 10mi
Dew Point: 54°   Wind: 9mph
Humidity: 65%   Direction: 140°SE
Pressure: 30.08"   Gusts: NA
Location:  39.99°N, 94.35°W
Report Text: KSTJ 222353Z AUTO 14008KT 10SM CLR 19/12 A3008 RMK AO2 SLP182 T01890122 10233 20183 55001
Loading
Personal Weather Stations






























Interactive Weather Map New forecast layout! Learn more

10-Day Weather Forecast

Advertisements
Track Severe Weather on mobile